Apple Valley, Utah
Current Conditions -  °F | °C
As of 12:15 AM on Sunday 26 Oct 2014 (Local Time) from KAZC Reporting Station
Broken Clouds Broken Clouds  
Wind Chill: 50°   Ceiling: 6000
Heat Index: 50°   Visibility: 10mi
Dew Point: 39°   Wind: 0mph
Humidity: 66%   Direction: NA
Pressure: 30.14"   Gusts: NA
Location:  37.2274°N, 113.139°W
Report Text: KAZC 260615Z AUTO 00000KT 10SM BKN060 10/04 A3014 RMK AO2 T01000039
Loading
Personal Weather Stations






























Interactive Weather Map
Tropical Storm Tracking
New forecast layout! Learn more

10-Day Weather Forecast

Advertisements
Track Severe Weather on mobile